sensor_id;sensor_type;location;lat;lon;timestamp;P1;durP1;ratioP1;P2;durP2;ratioP2
1106;SDS011;540;49.448;8.612;2022-11-20T00:01:03;20.05;;;9.95;;
1106;SDS011;540;49.448;8.612;2022-11-20T00:03:32;17.33;;;8.18;;
1106;SDS011;540;49.448;8.612;2022-11-20T00:06:00;16.42;;;9.18;;
1106;SDS011;540;49.448;8.612;2022-11-20T00:08:28;16.65;;;9.05;;
1106;SDS011;540;49.448;8.612;2022-11-20T00:10:56;17.95;;;8.93;;
1106;SDS011;540;49.448;8.612;2022-11-20T00:13:25;15.32;;;8.45;;
1106;SDS011;540;49.448;8.612;2022-11-20T00:15:56;16.17;;;7.85;;
1106;SDS011;540;49.448;8.612;2022-11-20T00:18:24;15.02;;;8.40;;
1106;SDS011;540;49.448;8.612;2022-11-20T00:20:52;19.52;;;9.88;;
1106;SDS011;540;49.448;8.612;2022-11-20T00:23:20;15.68;;;8.60;;
1106;SDS011;540;49.448;8.612;2022-11-20T00:25:48;18.08;;;8.60;;
1106;SDS011;540;49.448;8.612;2022-11-20T00:28:16;14.88;;;7.60;;
1106;SDS011;540;49.448;8.612;2022-11-20T00:30:45;15.57;;;8.32;;
1106;SDS011;540;49.448;8.612;2022-11-20T00:33:13;16.25;;;8.55;;
1106;SDS011;540;49.448;8.612;2022-11-20T00:35:40;18.15;;;9.48;;
1106;SDS011;540;49.448;8.612;2022-11-20T00:38:08;26.50;;;8.50;;
1106;SDS011;540;49.448;8.612;2022-11-20T00:40:36;16.30;;;8.38;;
1106;SDS011;540;49.448;8.612;2022-11-20T00:43:04;13.13;;;7.50;;
1106;SDS011;540;49.448;8.612;2022-11-20T00:45:32;13.70;;;7.13;;
1106;SDS011;540;49.448;8.612;2022-11-20T00:48:01;13.35;;;6.85;;
1106;SDS011;540;49.448;8.612;2022-11-20T00:50:28;12.60;;;6.78;;
1106;SDS011;540;49.448;8.612;2022-11-20T00:52:56;11.23;;;6.07;;
1106;SDS011;540;49.448;8.612;2022-11-20T00:55:24;12.27;;;6.20;;
1106;SDS011;540;49.448;8.612;2022-11-20T00:57:52;12.43;;;6.30;;
1106;SDS011;540;49.448;8.612;2022-11-20T01:00:20;12.23;;;6.65;;
1106;SDS011;540;49.448;8.612;2022-11-20T01:02:47;11.90;;;6.45;;
1106;SDS011;540;49.448;8.612;2022-11-20T01:05:17;10.32;;;5.82;;
1106;SDS011;540;49.448;8.612;2022-11-20T01:07:44;11.60;;;6.10;;
1106;SDS011;540;49.448;8.612;2022-11-20T01:10:12;8.95;;;5.93;;
1106;SDS011;540;49.448;8.612;2022-11-20T01:12:40;15.02;;;6.50;;
1106;SDS011;540;49.448;8.612;2022-11-20T01:15:08;9.57;;;5.32;;
1106;SDS011;540;49.448;8.612;2022-11-20T01:17:36;11.60;;;5.97;;
1106;SDS011;540;49.448;8.612;2022-11-20T01:20:04;10.27;;;6.15;;
1106;SDS011;540;49.448;8.612;2022-11-20T01:22:34;11.15;;;6.40;;
1106;SDS011;540;49.448;8.612;2022-11-20T01:25:02;11.23;;;6.22;;
1106;SDS011;540;49.448;8.612;2022-11-20T01:27:30;12.40;;;6.05;;
1106;SDS011;540;49.448;8.612;2022-11-20T01:29:58;12.35;;;6.57;;
1106;SDS011;540;49.448;8.612;2022-11-20T01:32:26;12.63;;;6.38;;
1106;SDS011;540;49.448;8.612;2022-11-20T01:34:54;12.23;;;6.00;;
1106;SDS011;540;49.448;8.612;2022-11-20T01:37:22;15.80;;;6.70;;
1106;SDS011;540;49.448;8.612;2022-11-20T01:39:51;14.02;;;6.97;;
1106;SDS011;540;49.448;8.612;2022-11-20T01:42:19;14.70;;;7.55;;
1106;SDS011;540;49.448;8.612;2022-11-20T01:48:08;13.18;;;7.03;;
1106;SDS011;540;49.448;8.612;2022-11-20T01:50:35;11.63;;;6.47;;
1106;SDS011;540;49.448;8.612;2022-11-20T01:53:04;12.10;;;6.50;;
1106;SDS011;540;49.448;8.612;2022-11-20T01:55:36;12.70;;;6.93;;
1106;SDS011;540;49.448;8.612;2022-11-20T01:58:06;12.60;;;6.90;;
1106;SDS011;540;49.448;8.612;2022-11-20T02:00:35;15.68;;;7.60;;
1106;SDS011;540;49.448;8.612;2022-11-20T02:03:03;19.35;;;9.75;;
1106;SDS011;540;49.448;8.612;2022-11-20T02:05:37;17.95;;;8.68;;
1106;SDS011;540;49.448;8.612;2022-11-20T02:08:09;20.02;;;9.02;;
1106;SDS011;540;49.448;8.612;2022-11-20T02:10:38;16.98;;;8.95;;
1106;SDS011;540;49.448;8.612;2022-11-20T02:13:06;15.75;;;8.38;;
1106;SDS011;540;49.448;8.612;2022-11-20T02:15:52;19.23;;;8.70;;
1106;SDS011;540;49.448;8.612;2022-11-20T02:18:21;18.67;;;9.15;;
1106;SDS011;540;49.448;8.612;2022-11-20T02:20:51;19.45;;;9.68;;
1106;SDS011;540;49.448;8.612;2022-11-20T02:23:24;23.02;;;10.20;;
1106;SDS011;540;49.448;8.612;2022-11-20T02:25:59;17.38;;;9.40;;
1106;SDS011;540;49.448;8.612;2022-11-20T02:28:30;18.98;;;9.60;;
1106;SDS011;540;49.448;8.612;2022-11-20T02:30:58;19.63;;;9.52;;
1106;SDS011;540;49.448;8.612;2022-11-20T02:33:26;18.70;;;9.05;;
1106;SDS011;540;49.448;8.612;2022-11-20T02:35:53;18.58;;;8.57;;
1106;SDS011;540;49.448;8.612;2022-11-20T02:38:21;19.33;;;8.82;;
1106;SDS011;540;49.448;8.612;2022-11-20T02:40:49;20.33;;;10.13;;
1106;SDS011;540;49.448;8.612;2022-11-20T02:43:22;22.05;;;9.38;;
1106;SDS011;540;49.448;8.612;2022-11-20T02:45:50;17.88;;;8.25;;
1106;SDS011;540;49.448;8.612;2022-11-20T02:48:18;20.13;;;9.57;;
1106;SDS011;540;49.448;8.612;2022-11-20T02:50:45;18.92;;;8.35;;
1106;SDS011;540;49.448;8.612;2022-11-20T02:53:13;17.58;;;8.75;;
1106;SDS011;540;49.448;8.612;2022-11-20T02:55:41;17.17;;;9.05;;
1106;SDS011;540;49.448;8.612;2022-11-20T02:58:09;18.02;;;8.13;;
1106;SDS011;540;49.448;8.612;2022-11-20T03:00:39;25.20;;;9.93;;
1106;SDS011;540;49.448;8.612;2022-11-20T03:03:06;22.10;;;10.10;;
1106;SDS011;540;49.448;8.612;2022-11-20T03:05:34;23.15;;;10.30;;
1106;SDS011;540;49.448;8.612;2022-11-20T03:08:02;20.15;;;8.20;;
1106;SDS011;540;49.448;8.612;2022-11-20T03:10:30;22.52;;;9.32;;
1106;SDS011;540;49.448;8.612;2022-11-20T03:12:58;17.75;;;8.52;;
1106;SDS011;540;49.448;8.612;2022-11-20T03:15:26;18.10;;;7.97;;
1106;SDS011;540;49.448;8.612;2022-11-20T03:17:55;16.35;;;8.18;;
1106;SDS011;540;49.448;8.612;2022-11-20T03:20:23;20.50;;;9.82;;
1106;SDS011;540;49.448;8.612;2022-11-20T03:22:50;19.35;;;9.85;;
1106;SDS011;540;49.448;8.612;2022-11-20T03:25:20;20.55;;;8.75;;
1106;SDS011;540;49.448;8.612;2022-11-20T03:27:49;20.20;;;9.38;;
1106;SDS011;540;49.448;8.612;2022-11-20T03:30:17;18.40;;;9.02;;
1106;SDS011;540;49.448;8.612;2022-11-20T03:32:45;17.05;;;8.18;;
1106;SDS011;540;49.448;8.612;2022-11-20T03:35:14;18.45;;;9.07;;
1106;SDS011;540;49.448;8.612;2022-11-20T03:37:42;20.38;;;9.13;;
1106;SDS011;540;49.448;8.612;2022-11-20T03:40:11;16.85;;;9.05;;
1106;SDS011;540;49.448;8.612;2022-11-20T03:42:39;19.33;;;10.27;;
1106;SDS011;540;49.448;8.612;2022-11-20T03:45:13;20.73;;;9.35;;
1106;SDS011;540;49.448;8.612;2022-11-20T03:47:42;21.60;;;9.32;;
1106;SDS011;540;49.448;8.612;2022-11-20T03:50:10;18.60;;;7.72;;
1106;SDS011;540;49.448;8.612;2022-11-20T03:52:41;15.55;;;8.07;;
1106;SDS011;540;49.448;8.612;2022-11-20T03:55:09;22.23;;;8.57;;
1106;SDS011;540;49.448;8.612;2022-11-20T03:57:37;24.63;;;8.30;;
1106;SDS011;540;49.448;8.612;2022-11-20T04:00:05;17.77;;;8.00;;
1106;SDS011;540;49.448;8.612;2022-11-20T04:02:33;15.32;;;7.55;;
1106;SDS011;540;49.448;8.612;2022-11-20T04:05:01;15.43;;;7.45;;
1106;SDS011;540;49.448;8.612;2022-11-20T04:07:29;17.95;;;8.15;;
1106;SDS011;540;49.448;8.612;2022-11-20T04:09:58;19.58;;;8.60;;
1106;SDS011;540;49.448;8.612;2022-11-20T04:12:26;20.13;;;8.13;;
1106;SDS011;540;49.448;8.612;2022-11-20T04:14:54;17.92;;;7.78;;
1106;SDS011;540;49.448;8.612;2022-11-20T04:17:22;17.85;;;8.82;;
1106;SDS011;540;49.448;8.612;2022-11-20T04:19:49;17.08;;;7.82;;
1106;SDS011;540;49.448;8.612;2022-11-20T04:22:17;18.23;;;8.88;;
1106;SDS011;540;49.448;8.612;2022-11-20T04:24:46;21.58;;;8.77;;
1106;SDS011;540;49.448;8.612;2022-11-20T04:27:15;17.08;;;7.72;;
1106;SDS011;540;49.448;8.612;2022-11-20T04:29:43;17.33;;;9.10;;
1106;SDS011;540;49.448;8.612;2022-11-20T04:32:11;19.80;;;8.90;;
1106;SDS011;540;49.448;8.612;2022-11-20T04:34:38;17.35;;;7.93;;
1106;SDS011;540;49.448;8.612;2022-11-20T04:37:06;18.23;;;8.45;;
1106;SDS011;540;49.448;8.612;2022-11-20T04:39:34;17.38;;;8.95;;
1106;SDS011;540;49.448;8.612;2022-11-20T04:42:02;19.90;;;8.68;;
1106;SDS011;540;49.448;8.612;2022-11-20T04:44:49;19.58;;;8.10;;
1106;SDS011;540;49.448;8.612;2022-11-20T04:47:17;18.50;;;9.65;;
1106;SDS011;540;49.448;8.612;2022-11-20T04:49:45;16.50;;;7.85;;
1106;SDS011;540;49.448;8.612;2022-11-20T04:52:12;18.35;;;8.40;;
1106;SDS011;540;49.448;8.612;2022-11-20T04:54:40;17.30;;;8.70;;
1106;SDS011;540;49.448;8.612;2022-11-20T04:57:08;18.17;;;8.38;;
1106;SDS011;540;49.448;8.612;2022-11-20T04:59:40;20.08;;;8.90;;
1106;SDS011;540;49.448;8.612;2022-11-20T05:02:09;19.35;;;8.82;;
1106;SDS011;540;49.448;8.612;2022-11-20T05:04:37;16.17;;;7.60;;
1106;SDS011;540;49.448;8.612;2022-11-20T05:07:05;15.80;;;8.25;;
1106;SDS011;540;49.448;8.612;2022-11-20T05:09:33;16.73;;;8.00;;
1106;SDS011;540;49.448;8.612;2022-11-20T05:12:00;19.88;;;8.52;;
1106;SDS011;540;49.448;8.612;2022-11-20T05:14:28;19.75;;;8.77;;
1106;SDS011;540;49.448;8.612;2022-11-20T05:16:56;18.83;;;8.68;;
1106;SDS011;540;49.448;8.612;2022-11-20T05:19:25;17.38;;;9.35;;
1106;SDS011;540;49.448;8.612;2022-11-20T05:21:53;18.38;;;9.18;;
1106;SDS011;540;49.448;8.612;2022-11-20T05:24:21;18.63;;;9.10;;
1106;SDS011;540;49.448;8.612;2022-11-20T05:26:49;16.90;;;8.90;;
1106;SDS011;540;49.448;8.612;2022-11-20T05:29:16;20.35;;;10.25;;
1106;SDS011;540;49.448;8.612;2022-11-20T05:31:45;19.73;;;10.02;;
1106;SDS011;540;49.448;8.612;2022-11-20T05:34:12;18.98;;;9.35;;
1106;SDS011;540;49.448;8.612;2022-11-20T05:36:42;22.58;;;9.95;;
1106;SDS011;540;49.448;8.612;2022-11-20T05:39:09;19.35;;;9.23;;
1106;SDS011;540;49.448;8.612;2022-11-20T05:41:37;18.13;;;9.10;;
1106;SDS011;540;49.448;8.612;2022-11-20T05:44:05;20.27;;;9.63;;
1106;SDS011;540;49.448;8.612;2022-11-20T05:46:33;20.50;;;10.25;;
1106;SDS011;540;49.448;8.612;2022-11-20T05:49:01;18.30;;;9.38;;
1106;SDS011;540;49.448;8.612;2022-11-20T05:51:28;23.13;;;9.85;;
1106;SDS011;540;49.448;8.612;2022-11-20T05:53:58;22.48;;;9.73;;
1106;SDS011;540;49.448;8.612;2022-11-20T05:56:25;20.83;;;9.55;;
1106;SDS011;540;49.448;8.612;2022-11-20T05:58:53;20.83;;;10.27;;
1106;SDS011;540;49.448;8.612;2022-11-20T06:01:22;24.00;;;10.00;;
1106;SDS011;540;49.448;8.612;2022-11-20T06:03:51;24.13;;;10.65;;
1106;SDS011;540;49.448;8.612;2022-11-20T06:06:20;20.70;;;10.13;;
1106;SDS011;540;49.448;8.612;2022-11-20T06:08:48;26.15;;;11.25;;
1106;SDS011;540;49.448;8.612;2022-11-20T06:11:17;26.60;;;11.55;;
1106;SDS011;540;49.448;8.612;2022-11-20T06:13:45;28.02;;;10.82;;
1106;SDS011;540;49.448;8.612;2022-11-20T06:16:14;25.38;;;11.43;;
1106;SDS011;540;49.448;8.612;2022-11-20T06:18:44;27.63;;;11.57;;
1106;SDS011;540;49.448;8.612;2022-11-20T06:21:13;27.40;;;10.75;;
1106;SDS011;540;49.448;8.612;2022-11-20T06:23:43;27.08;;;12.15;;
1106;SDS011;540;49.448;8.612;2022-11-20T06:26:12;29.58;;;13.35;;
1106;SDS011;540;49.448;8.612;2022-11-20T06:28:43;28.40;;;12.18;;
1106;SDS011;540;49.448;8.612;2022-11-20T06:31:11;27.63;;;12.05;;
1106;SDS011;540;49.448;8.612;2022-11-20T06:33:41;32.60;;;13.15;;
1106;SDS011;540;49.448;8.612;2022-11-20T06:36:09;27.75;;;10.95;;
1106;SDS011;540;49.448;8.612;2022-11-20T06:38:38;24.38;;;11.32;;
1106;SDS011;540;49.448;8.612;2022-11-20T06:41:07;25.98;;;11.73;;
1106;SDS011;540;49.448;8.612;2022-11-20T06:43:38;31.10;;;12.75;;
1106;SDS011;540;49.448;8.612;2022-11-20T06:46:08;28.35;;;12.50;;
1106;SDS011;540;49.448;8.612;2022-11-20T06:48:37;30.35;;;13.55;;
1106;SDS011;540;49.448;8.612;2022-11-20T06:51:05;29.50;;;12.45;;
1106;SDS011;540;49.448;8.612;2022-11-20T06:53:34;31.15;;;11.73;;
1106;SDS011;540;49.448;8.612;2022-11-20T06:56:02;27.10;;;12.30;;
1106;SDS011;540;49.448;8.612;2022-11-20T06:58:31;33.83;;;13.23;;
1106;SDS011;540;49.448;8.612;2022-11-20T07:01:00;31.08;;;13.02;;
1106;SDS011;540;49.448;8.612;2022-11-20T07:03:31;30.08;;;13.70;;
1106;SDS011;540;49.448;8.612;2022-11-20T07:06:00;33.40;;;13.90;;
1106;SDS011;540;49.448;8.612;2022-11-20T07:08:28;33.67;;;12.82;;
1106;SDS011;540;49.448;8.612;2022-11-20T07:10:57;27.27;;;12.27;;
1106;SDS011;540;49.448;8.612;2022-11-20T07:13:25;36.95;;;15.77;;
1106;SDS011;540;49.448;8.612;2022-11-20T07:15:54;29.35;;;12.82;;
1106;SDS011;540;49.448;8.612;2022-11-20T07:18:26;32.55;;;14.27;;
1106;SDS011;540;49.448;8.612;2022-11-20T07:20:55;31.13;;;15.23;;
1106;SDS011;540;49.448;8.612;2022-11-20T07:23:23;35.47;;;15.27;;
1106;SDS011;540;49.448;8.612;2022-11-20T07:25:50;33.42;;;14.50;;
1106;SDS011;540;49.448;8.612;2022-11-20T07:28:18;32.25;;;15.32;;
1106;SDS011;540;49.448;8.612;2022-11-20T07:30:49;32.38;;;13.02;;
1106;SDS011;540;49.448;8.612;2022-11-20T07:33:17;30.13;;;13.27;;
1106;SDS011;540;49.448;8.612;2022-11-20T07:35:45;28.38;;;12.68;;
1106;SDS011;540;49.448;8.612;2022-11-20T07:38:14;32.53;;;12.98;;
1106;SDS011;540;49.448;8.612;2022-11-20T07:40:42;29.27;;;13.18;;
1106;SDS011;540;49.448;8.612;2022-11-20T07:43:10;28.35;;;13.63;;
1106;SDS011;540;49.448;8.612;2022-11-20T07:45:38;35.95;;;13.43;;
1106;SDS011;540;49.448;8.612;2022-11-20T07:48:06;31.40;;;13.70;;
1106;SDS011;540;49.448;8.612;2022-11-20T07:50:33;32.13;;;13.23;;
1106;SDS011;540;49.448;8.612;2022-11-20T07:53:02;31.13;;;13.35;;
1106;SDS011;540;49.448;8.612;2022-11-20T07:55:32;29.00;;;13.25;;
1106;SDS011;540;49.448;8.612;2022-11-20T07:58:00;44.58;;;22.20;;
1106;SDS011;540;49.448;8.612;2022-11-20T08:00:28;34.42;;;13.15;;
1106;SDS011;540;49.448;8.612;2022-11-20T08:02:56;28.05;;;12.65;;
1106;SDS011;540;49.448;8.612;2022-11-20T08:05:23;32.55;;;14.02;;
1106;SDS011;540;49.448;8.612;2022-11-20T08:07:51;29.10;;;14.10;;
1106;SDS011;540;49.448;8.612;2022-11-20T08:10:19;29.40;;;13.40;;
1106;SDS011;540;49.448;8.612;2022-11-20T08:12:49;31.02;;;14.18;;
1106;SDS011;540;49.448;8.612;2022-11-20T08:15:36;25.27;;;13.10;;
1106;SDS011;540;49.448;8.612;2022-11-20T08:18:05;30.55;;;11.90;;
1106;SDS011;540;49.448;8.612;2022-11-20T08:20:55;29.60;;;13.15;;
1106;SDS011;540;49.448;8.612;2022-11-20T08:23:22;30.75;;;12.88;;
1106;SDS011;540;49.448;8.612;2022-11-20T08:25:50;31.98;;;12.88;;
1106;SDS011;540;49.448;8.612;2022-11-20T08:28:19;33.60;;;13.93;;
1106;SDS011;540;49.448;8.612;2022-11-20T08:30:47;28.63;;;12.77;;
1106;SDS011;540;49.448;8.612;2022-11-20T08:33:16;32.47;;;14.93;;
1106;SDS011;540;49.448;8.612;2022-11-20T08:35:44;33.20;;;14.18;;
1106;SDS011;540;49.448;8.612;2022-11-20T08:38:12;34.25;;;13.68;;
1106;SDS011;540;49.448;8.612;2022-11-20T08:40:40;24.45;;;11.43;;
1106;SDS011;540;49.448;8.612;2022-11-20T08:43:29;31.52;;;13.80;;
1106;SDS011;540;49.448;8.612;2022-11-20T08:45:57;23.60;;;11.60;;
1106;SDS011;540;49.448;8.612;2022-11-20T08:48:25;23.60;;;12.25;;
1106;SDS011;540;49.448;8.612;2022-11-20T08:50:53;22.75;;;12.38;;
1106;SDS011;540;49.448;8.612;2022-11-20T08:53:24;28.10;;;12.20;;
1106;SDS011;540;49.448;8.612;2022-11-20T08:55:53;29.15;;;13.25;;
1106;SDS011;540;49.448;8.612;2022-11-20T08:58:20;24.27;;;11.65;;
1106;SDS011;540;49.448;8.612;2022-11-20T09:00:50;20.08;;;10.70;;
1106;SDS011;540;49.448;8.612;2022-11-20T09:03:18;18.88;;;10.23;;
1106;SDS011;540;49.448;8.612;2022-11-20T09:05:46;21.85;;;10.80;;
1106;SDS011;540;49.448;8.612;2022-11-20T09:08:14;22.33;;;11.30;;
1106;SDS011;540;49.448;8.612;2022-11-20T09:10:42;24.02;;;10.77;;
1106;SDS011;540;49.448;8.612;2022-11-20T09:13:09;22.10;;;10.77;;
1106;SDS011;540;49.448;8.612;2022-11-20T09:15:37;28.38;;;13.20;;
1106;SDS011;540;49.448;8.612;2022-11-20T09:18:06;28.20;;;11.70;;
1106;SDS011;540;49.448;8.612;2022-11-20T09:20:35;27.00;;;13.25;;
1106;SDS011;540;49.448;8.612;2022-11-20T09:23:03;29.17;;;13.55;;
1106;SDS011;540;49.448;8.612;2022-11-20T09:25:31;28.80;;;14.43;;
1106;SDS011;540;49.448;8.612;2022-11-20T09:27:58;27.10;;;14.70;;
1106;SDS011;540;49.448;8.612;2022-11-20T09:30:26;25.63;;;12.57;;
1106;SDS011;540;49.448;8.612;2022-11-20T09:32:54;21.73;;;11.85;;
1106;SDS011;540;49.448;8.612;2022-11-20T09:35:23;24.35;;;11.95;;
1106;SDS011;540;49.448;8.612;2022-11-20T09:37:51;21.30;;;11.70;;
1106;SDS011;540;49.448;8.612;2022-11-20T09:40:19;23.55;;;11.75;;
1106;SDS011;540;49.448;8.612;2022-11-20T09:42:50;21.15;;;10.90;;
1106;SDS011;540;49.448;8.612;2022-11-20T09:45:27;20.47;;;11.10;;
1106;SDS011;540;49.448;8.612;2022-11-20T09:48:08;29.90;;;14.68;;
1106;SDS011;540;49.448;8.612;2022-11-20T09:50:47;28.10;;;14.52;;
1106;SDS011;540;49.448;8.612;2022-11-20T09:53:20;24.27;;;12.95;;
1106;SDS011;540;49.448;8.612;2022-11-20T09:55:55;26.02;;;13.25;;
1106;SDS011;540;49.448;8.612;2022-11-20T09:58:25;26.00;;;13.98;;
1106;SDS011;540;49.448;8.612;2022-11-20T10:00:59;23.05;;;11.15;;
1106;SDS011;540;49.448;8.612;2022-11-20T10:03:36;28.75;;;13.10;;
1106;SDS011;540;49.448;8.612;2022-11-20T10:06:15;24.42;;;11.43;;
1106;SDS011;540;49.448;8.612;2022-11-20T10:08:45;28.77;;;14.55;;
1106;SDS011;540;49.448;8.612;2022-11-20T10:11:20;28.48;;;14.10;;
1106;SDS011;540;49.448;8.612;2022-11-20T10:14:01;36.63;;;16.75;;
1106;SDS011;540;49.448;8.612;2022-11-20T10:16:41;30.35;;;15.23;;
1106;SDS011;540;49.448;8.612;2022-11-20T10:19:25;35.28;;;15.40;;
1106;SDS011;540;49.448;8.612;2022-11-20T10:22:12;33.75;;;14.45;;
1106;SDS011;540;49.448;8.612;2022-11-20T10:24:50;34.13;;;17.08;;
1106;SDS011;540;49.448;8.612;2022-11-20T10:27:28;37.83;;;15.70;;
1106;SDS011;540;49.448;8.612;2022-11-20T10:30:08;34.72;;;13.85;;
1106;SDS011;540;49.448;8.612;2022-11-20T10:32:38;26.05;;;13.10;;
1106;SDS011;540;49.448;8.612;2022-11-20T10:35:14;30.92;;;14.98;;
1106;SDS011;540;49.448;8.612;2022-11-20T10:37:49;33.67;;;15.25;;
1106;SDS011;540;49.448;8.612;2022-11-20T10:40:23;27.52;;;13.93;;
1106;SDS011;540;49.448;8.612;2022-11-20T10:42:56;29.10;;;12.95;;
1106;SDS011;540;49.448;8.612;2022-11-20T10:45:31;33.63;;;15.13;;
1106;SDS011;540;49.448;8.612;2022-11-20T10:48:16;34.22;;;13.98;;
1106;SDS011;540;49.448;8.612;2022-11-20T10:53:45;31.92;;;16.05;;
1106;SDS011;540;49.448;8.612;2022-11-20T10:56:38;35.95;;;15.70;;
1106;SDS011;540;49.448;8.612;2022-11-20T10:59:30;29.30;;;14.23;;
1106;SDS011;540;49.448;8.612;2022-11-20T11:02:15;33.15;;;14.23;;
1106;SDS011;540;49.448;8.612;2022-11-20T11:04:45;58.05;;;31.83;;
1106;SDS011;540;49.448;8.612;2022-11-20T11:07:15;132.85;;;73.97;;
1106;SDS011;540;49.448;8.612;2022-11-20T11:09:49;39.17;;;17.50;;
1106;SDS011;540;49.448;8.612;2022-11-20T11:12:19;37.00;;;18.05;;
1106;SDS011;540;49.448;8.612;2022-11-20T11:14:48;36.95;;;16.90;;
1106;SDS011;540;49.448;8.612;2022-11-20T11:17:21;32.85;;;17.15;;
1106;SDS011;540;49.448;8.612;2022-11-20T11:19:59;39.88;;;16.75;;
1106;SDS011;540;49.448;8.612;2022-11-20T11:22:29;37.33;;;16.67;;
1106;SDS011;540;49.448;8.612;2022-11-20T11:24:59;38.53;;;16.63;;
1106;SDS011;540;49.448;8.612;2022-11-20T11:27:28;37.72;;;19.08;;
1106;SDS011;540;49.448;8.612;2022-11-20T11:30:12;42.97;;;20.67;;
1106;SDS011;540;49.448;8.612;2022-11-20T11:32:42;44.20;;;19.58;;
1106;SDS011;540;49.448;8.612;2022-11-20T11:35:24;42.38;;;20.13;;
1106;SDS011;540;49.448;8.612;2022-11-20T11:37:53;34.67;;;16.98;;
1106;SDS011;540;49.448;8.612;2022-11-20T11:40:32;24.38;;;14.27;;
1106;SDS011;540;49.448;8.612;2022-11-20T11:43:02;27.10;;;14.77;;
1106;SDS011;540;49.448;8.612;2022-11-20T11:45:53;23.80;;;15.82;;
1106;SDS011;540;49.448;8.612;2022-11-20T11:48:20;22.75;;;13.43;;
1106;SDS011;540;49.448;8.612;2022-11-20T11:50:49;22.08;;;12.85;;
1106;SDS011;540;49.448;8.612;2022-11-20T11:53:18;32.72;;;19.20;;
1106;SDS011;540;49.448;8.612;2022-11-20T11:55:51;19.85;;;11.15;;
1106;SDS011;540;49.448;8.612;2022-11-20T11:58:34;17.10;;;9.23;;
1106;SDS011;540;49.448;8.612;2022-11-20T12:01:17;9.95;;;7.15;;
1106;SDS011;540;49.448;8.612;2022-11-20T12:03:55;11.60;;;7.93;;
1106;SDS011;540;49.448;8.612;2022-11-20T12:06:29;12.10;;;7.93;;
1106;SDS011;540;49.448;8.612;2022-11-20T12:09:01;11.60;;;6.93;;
1106;SDS011;540;49.448;8.612;2022-11-20T12:11:33;11.23;;;7.00;;
1106;SDS011;540;49.448;8.612;2022-11-20T12:14:09;11.13;;;6.95;;
1106;SDS011;540;49.448;8.612;2022-11-20T12:16:42;9.73;;;6.43;;
1106;SDS011;540;49.448;8.612;2022-11-20T12:19:10;12.88;;;7.38;;
1106;SDS011;540;49.448;8.612;2022-11-20T12:21:43;21.15;;;8.20;;
1106;SDS011;540;49.448;8.612;2022-11-20T12:24:36;21.50;;;10.02;;
1106;SDS011;540;49.448;8.612;2022-11-20T12:27:21;17.05;;;9.02;;
1106;SDS011;540;49.448;8.612;2022-11-20T12:30:07;12.23;;;6.97;;
1106;SDS011;540;49.448;8.612;2022-11-20T12:35:42;15.95;;;9.05;;
1106;SDS011;540;49.448;8.612;2022-11-20T12:38:31;13.52;;;8.30;;
1106;SDS011;540;49.448;8.612;2022-11-20T12:41:20;17.17;;;8.93;;
1106;SDS011;540;49.448;8.612;2022-11-20T12:47:11;10.35;;;6.72;;
1106;SDS011;540;49.448;8.612;2022-11-20T12:49:47;13.80;;;7.80;;
1106;SDS011;540;49.448;8.612;2022-11-20T12:52:26;16.63;;;8.57;;
1106;SDS011;540;49.448;8.612;2022-11-20T12:55:16;15.82;;;9.35;;
1106;SDS011;540;49.448;8.612;2022-11-20T12:57:52;12.07;;;6.90;;
1106;SDS011;540;49.448;8.612;2022-11-20T13:00:26;8.57;;;4.95;;
1106;SDS011;540;49.448;8.612;2022-11-20T13:03:04;10.05;;;4.97;;
1106;SDS011;540;49.448;8.612;2022-11-20T13:08:15;4.70;;;2.95;;
1106;SDS011;540;49.448;8.612;2022-11-20T13:10:49;5.25;;;3.53;;
1106;SDS011;540;49.448;8.612;2022-11-20T13:13:23;5.10;;;2.35;;
1106;SDS011;540;49.448;8.612;2022-11-20T13:15:58;6.65;;;2.50;;
1106;SDS011;540;49.448;8.612;2022-11-20T13:18:29;6.55;;;2.65;;
1106;SDS011;540;49.448;8.612;2022-11-20T13:21:13;7.83;;;3.63;;
1106;SDS011;540;49.448;8.612;2022-11-20T13:23:42;8.65;;;3.17;;
1106;SDS011;540;49.448;8.612;2022-11-20T13:26:14;9.43;;;3.70;;
1106;SDS011;540;49.448;8.612;2022-11-20T13:28:45;5.57;;;2.70;;
1106;SDS011;540;49.448;8.612;2022-11-20T13:31:25;10.50;;;3.83;;
1106;SDS011;540;49.448;8.612;2022-11-20T13:33:57;6.32;;;3.30;;
1106;SDS011;540;49.448;8.612;2022-11-20T13:36:28;6.82;;;2.88;;
1106;SDS011;540;49.448;8.612;2022-11-20T13:38:58;4.18;;;2.55;;
1106;SDS011;540;49.448;8.612;2022-11-20T13:41:27;6.38;;;3.15;;
1106;SDS011;540;49.448;8.612;2022-11-20T13:43:58;4.80;;;2.50;;
1106;SDS011;540;49.448;8.612;2022-11-20T13:46:37;8.05;;;1.92;;
1106;SDS011;540;49.448;8.612;2022-11-20T13:49:07;6.00;;;2.30;;
1106;SDS011;540;49.448;8.612;2022-11-20T13:51:40;3.75;;;1.90;;
1106;SDS011;540;49.448;8.612;2022-11-20T13:57:30;5.32;;;1.77;;
1106;SDS011;540;49.448;8.612;2022-11-20T14:00:16;5.85;;;1.90;;
1106;SDS011;540;49.448;8.612;2022-11-20T14:02:49;6.15;;;1.80;;
1106;SDS011;540;49.448;8.612;2022-11-20T14:05:27;8.68;;;1.90;;
1106;SDS011;540;49.448;8.612;2022-11-20T14:07:56;3.75;;;1.58;;
1106;SDS011;540;49.448;8.612;2022-11-20T14:10:26;3.53;;;1.35;;
1106;SDS011;540;49.448;8.612;2022-11-20T14:12:57;6.75;;;1.70;;
1106;SDS011;540;49.448;8.612;2022-11-20T14:15:36;7.07;;;2.22;;
1106;SDS011;540;49.448;8.612;2022-11-20T14:18:13;9.18;;;2.15;;
1106;SDS011;540;49.448;8.612;2022-11-20T14:20:42;7.75;;;1.55;;
1106;SDS011;540;49.448;8.612;2022-11-20T14:23:10;7.20;;;1.50;;
1106;SDS011;540;49.448;8.612;2022-11-20T14:25:41;4.80;;;1.50;;
1106;SDS011;540;49.448;8.612;2022-11-20T14:28:10;8.95;;;2.53;;
1106;SDS011;540;49.448;8.612;2022-11-20T14:30:47;6.07;;;2.60;;
1106;SDS011;540;49.448;8.612;2022-11-20T14:33:17;6.25;;;2.13;;
1106;SDS011;540;49.448;8.612;2022-11-20T14:35:51;15.85;;;6.63;;
1106;SDS011;540;49.448;8.612;2022-11-20T14:38:21;10.13;;;4.82;;
1106;SDS011;540;49.448;8.612;2022-11-20T14:40:52;30.00;;;14.07;;
1106;SDS011;540;49.448;8.612;2022-11-20T14:43:22;14.43;;;6.60;;
1106;SDS011;540;49.448;8.612;2022-11-20T14:45:57;16.67;;;7.63;;
1106;SDS011;540;49.448;8.612;2022-11-20T14:48:30;8.52;;;2.83;;
1106;SDS011;540;49.448;8.612;2022-11-20T14:50:59;10.23;;;2.28;;
1106;SDS011;540;49.448;8.612;2022-11-20T14:53:27;9.85;;;3.05;;
1106;SDS011;540;49.448;8.612;2022-11-20T14:55:56;6.20;;;2.22;;
1106;SDS011;540;49.448;8.612;2022-11-20T14:58:26;4.50;;;1.75;;
1106;SDS011;540;49.448;8.612;2022-11-20T15:00:56;8.35;;;2.38;;
1106;SDS011;540;49.448;8.612;2022-11-20T15:03:34;6.97;;;2.55;;
1106;SDS011;540;49.448;8.612;2022-11-20T15:06:03;7.93;;;4.18;;
1106;SDS011;540;49.448;8.612;2022-11-20T15:08:32;5.00;;;1.90;;
1106;SDS011;540;49.448;8.612;2022-11-20T15:11:00;8.23;;;4.75;;
1106;SDS011;540;49.448;8.612;2022-11-20T15:13:29;6.85;;;3.03;;
1106;SDS011;540;49.448;8.612;2022-11-20T15:15:59;6.10;;;2.15;;
1106;SDS011;540;49.448;8.612;2022-11-20T15:18:29;7.38;;;2.95;;
1106;SDS011;540;49.448;8.612;2022-11-20T15:21:02;4.55;;;2.40;;
1106;SDS011;540;49.448;8.612;2022-11-20T15:23:31;4.47;;;2.53;;
1106;SDS011;540;49.448;8.612;2022-11-20T15:25:59;5.55;;;2.72;;
1106;SDS011;540;49.448;8.612;2022-11-20T15:28:27;3.50;;;1.48;;
1106;SDS011;540;49.448;8.612;2022-11-20T15:30:58;7.07;;;1.98;;
1106;SDS011;540;49.448;8.612;2022-11-20T15:33:26;4.65;;;2.20;;
1106;SDS011;540;49.448;8.612;2022-11-20T15:35:54;4.35;;;2.35;;
1106;SDS011;540;49.448;8.612;2022-11-20T15:38:23;4.05;;;1.85;;
1106;SDS011;540;49.448;8.612;2022-11-20T15:40:51;4.75;;;2.00;;
1106;SDS011;540;49.448;8.612;2022-11-20T15:43:19;3.20;;;1.73;;
1106;SDS011;540;49.448;8.612;2022-11-20T15:45:47;2.45;;;1.38;;
1106;SDS011;540;49.448;8.612;2022-11-20T15:48:17;3.50;;;1.63;;
1106;SDS011;540;49.448;8.612;2022-11-20T15:50:49;4.07;;;2.25;;
1106;SDS011;540;49.448;8.612;2022-11-20T15:53:20;5.35;;;1.95;;